createdAt,value
2022-09-07T00:00:25.263Z,68.81
2022-09-07T00:02:57.325Z,68.55
2022-09-07T00:05:30.372Z,68.85
2022-09-07T00:08:02.737Z,68.70
2022-09-07T00:10:34.793Z,68.80
2022-09-07T00:13:07.859Z,68.66
2022-09-07T00:15:40.537Z,68.71
2022-09-07T00:18:12.521Z,68.67
2022-09-07T00:20:44.747Z,69.11
2022-09-07T00:23:16.700Z,68.93
2022-09-07T00:25:53.515Z,69.13
2022-09-07T00:28:26.082Z,68.94
2022-09-07T00:30:58.576Z,68.98
2022-09-07T00:33:30.962Z,69.16
2022-09-07T00:36:03.178Z,69.25
2022-09-07T00:38:35.986Z,69.38
2022-09-07T00:41:08.030Z,69.62
2022-09-07T00:43:53.535Z,69.35
2022-09-07T00:46:34.232Z,69.50
2022-09-07T00:49:21.150Z,69.54
2022-09-07T00:51:59.141Z,69.54
2022-09-07T00:54:45.849Z,69.19
2022-09-07T00:57:17.902Z,68.96
2022-09-07T00:59:53.086Z,69.52
2022-09-07T01:02:26.763Z,69.55
2022-09-07T01:05:13.726Z,69.55
2022-09-07T01:07:46.921Z,69.23
2022-09-07T01:10:19.607Z,69.10
2022-09-07T01:12:51.980Z,69.65
2022-09-07T01:15:46.562Z,69.51
2022-09-07T01:18:24.241Z,69.32
2022-09-07T01:21:23.797Z,69.36
2022-09-07T01:24:17.368Z,69.37
2022-09-07T01:27:47.017Z,69.41
2022-09-07T01:30:21.410Z,69.11
2022-09-07T01:33:23.173Z,69.36
2022-09-07T01:36:33.855Z,69.66
2022-09-07T01:39:06.670Z,69.66
2022-09-07T01:41:58.977Z,69.94
2022-09-07T01:44:48.462Z,70.17
2022-09-07T01:47:20.431Z,70.08
2022-09-07T01:50:19.625Z,70.53
2022-09-07T01:53:00.956Z,70.33
2022-09-07T01:56:04.135Z,70.44
2022-09-07T01:58:45.206Z,70.19
2022-09-07T02:02:04.193Z,70.49
2022-09-07T02:04:59.711Z,70.50
2022-09-07T02:07:59.787Z,70.69
2022-09-07T02:10:41.871Z,70.91
2022-09-07T02:13:19.861Z,70.67
2022-09-07T02:15:59.131Z,70.69
2022-09-07T02:18:42.931Z,70.63
2022-09-07T02:21:22.049Z,70.60
2022-09-07T02:24:05.389Z,70.75
2022-09-07T02:26:40.969Z,70.39
2022-09-07T02:29:12.945Z,70.37
2022-09-07T02:31:45.211Z,70.70
2022-09-07T02:34:17.331Z,70.46
2022-09-07T02:36:51.576Z,70.75
2022-09-07T02:39:23.553Z,70.86
2022-09-07T02:41:55.629Z,70.43
2022-09-07T02:44:34.837Z,70.72
2022-09-07T02:47:37.829Z,70.58
2022-09-07T02:51:02.941Z,70.55
2022-09-07T02:54:14.644Z,70.57
2022-09-07T02:57:37.680Z,70.79
2022-09-07T03:00:19.258Z,70.63
2022-09-07T03:03:15.301Z,71.27
2022-09-07T03:05:55.990Z,72.20
2022-09-07T03:08:51.638Z,72.38
2022-09-07T03:11:24.043Z,73.47
2022-09-07T03:14:33.794Z,73.77
2022-09-07T03:17:05.950Z,74.00
2022-09-07T03:19:38.057Z,74.79
2022-09-07T03:22:10.095Z,74.79
2022-09-07T03:24:43.354Z,75.04
2022-09-07T03:27:15.347Z,78.02
2022-09-07T03:29:47.328Z,79.98
2022-09-07T03:32:19.361Z,80.87
2022-09-07T03:34:52.328Z,84.74
2022-09-07T03:37:24.845Z,87.05
2022-09-07T03:39:57.301Z,87.73
2022-09-07T03:42:29.402Z,88.85
2022-09-07T03:45:01.590Z,90.35
2022-09-07T03:47:40.674Z,90.75
2022-09-07T03:50:12.611Z,91.81
2022-09-07T03:52:44.658Z,92.18
2022-09-07T03:55:16.746Z,92.89
2022-09-07T03:57:48.734Z,93.84
2022-09-07T04:00:20.778Z,94.55
2022-09-07T04:02:52.856Z,95.17
2022-09-07T04:05:24.880Z,95.07
2022-09-07T04:07:56.848Z,94.47
2022-09-07T04:10:28.834Z,93.50
2022-09-07T04:13:00.882Z,93.49
2022-09-07T04:15:33.333Z,94.44
2022-09-07T04:18:05.480Z,93.49
2022-09-07T04:20:37.486Z,94.45
2022-09-07T04:23:09.489Z,93.90
2022-09-07T04:25:52.275Z,93.46
2022-09-07T04:28:24.409Z,93.64
2022-09-07T04:31:00.421Z,93.27
2022-09-07T04:33:32.955Z,93.09
2022-09-07T04:36:05.422Z,93.02
2022-09-07T04:38:39.984Z,92.80
2022-09-07T04:41:19.087Z,92.32
2022-09-07T04:43:59.695Z,91.95
2022-09-07T04:46:37.117Z,91.50
2022-09-07T04:49:12.107Z,90.58
2022-09-07T04:51:44.452Z,91.71
2022-09-07T04:54:16.536Z,90.73
2022-09-07T04:56:48.510Z,90.84
2022-09-07T04:59:20.598Z,90.04
2022-09-07T05:01:52.753Z,89.64
2022-09-07T05:04:24.765Z,89.19
2022-09-07T05:06:56.814Z,89.53
2022-09-07T05:09:28.904Z,89.23
2022-09-07T05:12:00.928Z,88.12
2022-09-07T05:14:32.887Z,87.49
2022-09-07T05:17:04.950Z,87.58
2022-09-07T05:19:36.986Z,87.53
2022-09-07T05:22:09.024Z,87.36
2022-09-07T05:24:41.054Z,87.35
2022-09-07T05:27:13.041Z,87.95
2022-09-07T05:32:32.574Z,90.61
2022-09-07T05:35:05.106Z,92.94
2022-09-07T05:37:37.129Z,93.10
2022-09-07T05:40:10.731Z,94.09
2022-09-07T05:42:42.757Z,94.32
2022-09-07T05:45:14.926Z,95.44
2022-09-07T05:47:50.814Z,95.25
2022-09-07T05:50:22.905Z,95.77
2022-09-07T05:52:54.871Z,97.23
2022-09-07T05:55:30.385Z,96.75
2022-09-07T05:58:02.801Z,96.38
2022-09-07T06:00:34.933Z,96.76
2022-09-07T06:03:07.297Z,97.03
2022-09-07T06:05:39.354Z,97.44
2022-09-07T06:08:11.305Z,96.50
2022-09-07T06:10:44.477Z,97.39
2022-09-07T06:13:16.779Z,96.97
2022-09-07T06:15:48.974Z,97.71
2022-09-07T06:18:20.950Z,97.58
2022-09-07T06:20:52.931Z,97.68
2022-09-07T06:23:24.935Z,97.46
2022-09-07T06:25:56.966Z,97.27
2022-09-07T06:28:41.427Z,98.80
2022-09-07T06:31:17.145Z,98.44
2022-09-07T06:33:50.232Z,99.32
2022-09-07T06:36:27.439Z,99.04
2022-09-07T06:39:01.763Z,98.71
2022-09-07T06:44:27.629Z,99.18
2022-09-07T06:47:02.766Z,99.53
2022-09-07T06:49:35.153Z,99.71
2022-09-07T06:52:07.189Z,99.42
2022-09-07T06:57:30.207Z,99.12
2022-09-07T07:00:02.457Z,99.82
2022-09-07T07:02:34.415Z,99.35
2022-09-07T07:05:06.800Z,98.84
2022-09-07T07:07:38.904Z,99.20
2022-09-07T07:10:10.986Z,98.74
2022-09-07T07:15:13.934Z,97.75
2022-09-07T07:17:49.127Z,96.96
2022-09-07T07:20:25.411Z,96.57
2022-09-07T07:22:57.387Z,96.70
2022-09-07T07:25:29.909Z,94.29
2022-09-07T07:31:00.713Z,95.49
2022-09-07T07:33:35.416Z,93.91
2022-09-07T07:36:27.180Z,93.46
2022-09-07T07:38:59.842Z,92.86
2022-09-07T07:44:24.876Z,89.06
2022-09-07T07:46:56.902Z,89.67
2022-09-07T07:49:28.911Z,89.92
2022-09-07T07:54:52.797Z,89.49
2022-09-07T07:57:24.713Z,89.00
2022-09-07T07:59:56.990Z,88.13
2022-09-07T08:02:28.979Z,85.17
2022-09-07T08:05:02.102Z,86.23
2022-09-07T08:07:34.066Z,86.59
2022-09-07T08:10:07.666Z,83.02
2022-09-07T08:12:40.202Z,82.12
2022-09-07T08:15:12.151Z,82.37
2022-09-07T08:17:45.678Z,81.30
2022-09-07T08:20:17.670Z,78.45
2022-09-07T08:22:52.834Z,80.13
2022-09-07T08:25:25.590Z,81.09
2022-09-07T08:27:57.506Z,80.08
2022-09-07T08:30:29.688Z,77.85
2022-09-07T08:33:01.622Z,79.61
2022-09-07T08:35:33.535Z,78.62
2022-09-07T08:38:05.467Z,76.02
2022-09-07T08:40:38.529Z,76.76
2022-09-07T08:43:35.096Z,80.90
2022-09-07T08:46:45.013Z,80.25
2022-09-07T08:49:26.283Z,72.17
2022-09-07T08:52:08.483Z,77.76
2022-09-07T08:54:47.470Z,76.32
2022-09-07T08:57:28.475Z,73.51
2022-09-07T09:00:14.394Z,70.57
2022-09-07T09:03:28.687Z,65.31
2022-09-07T09:06:04.588Z,56.87
2022-09-07T09:09:29.417Z,49.69
2022-09-07T09:12:37.457Z,47.15
2022-09-07T09:15:32.296Z,48.10
2022-09-07T09:18:29.498Z,49.00
2022-09-07T09:21:02.535Z,49.68
2022-09-07T09:23:42.160Z,49.29
2022-09-07T09:26:27.146Z,49.10
2022-09-07T09:29:15.320Z,46.72
2022-09-07T09:31:47.654Z,46.48
2022-09-07T09:34:23.737Z,44.24
2022-09-07T09:36:57.592Z,43.17
2022-09-07T09:39:36.876Z,41.75
2022-09-07T09:42:11.924Z,38.97
2022-09-07T09:44:45.570Z,39.08
2022-09-07T09:47:32.676Z,38.01
2022-09-07T09:54:06.132Z,39.63
2022-09-07T09:56:46.611Z,38.18
2022-09-07T10:05:38.141Z,34.25
2022-09-07T10:08:28.803Z,36.99
2022-09-07T10:11:05.705Z,33.63
2022-09-07T10:13:53.350Z,36.74
2022-09-07T10:16:41.834Z,36.18
2022-09-07T10:19:25.783Z,34.56
2022-09-07T10:22:00.579Z,35.64
2022-09-07T10:24:40.030Z,36.43
2022-09-07T10:27:35.721Z,37.37
2022-09-07T10:30:16.527Z,38.06
2022-09-07T10:33:02.672Z,38.38
2022-09-07T10:35:43.142Z,36.76
2022-09-07T10:38:25.071Z,37.45
2022-09-07T10:41:07.425Z,38.82
2022-09-07T10:43:47.394Z,40.88
2022-09-07T10:46:58.747Z,42.74
2022-09-07T10:50:21.857Z,45.70
2022-09-07T10:52:49.086Z,48.34
2022-09-07T10:55:33.179Z,48.82
2022-09-07T10:59:17.462Z,48.66
2022-09-07T11:02:10.384Z,47.55
2022-09-07T11:04:52.802Z,48.37
2022-09-07T11:08:08.694Z,47.80
2022-09-07T11:11:13.383Z,40.51
2022-09-07T11:14:11.454Z,34.81
2022-09-07T11:17:12.966Z,30.19
2022-09-07T11:20:02.202Z,29.52
2022-09-07T11:22:52.189Z,30.52
2022-09-07T11:25:34.145Z,30.20
2022-09-07T11:28:17.966Z,30.88
2022-09-07T11:31:06.820Z,32.48
2022-09-07T11:37:02.618Z,34.23
2022-09-07T11:39:55.361Z,36.02
2022-09-07T11:42:48.809Z,37.51
2022-09-07T11:45:31.881Z,39.63
2022-09-07T11:48:20.213Z,40.36
2022-09-07T11:51:24.820Z,40.84
2022-09-07T11:54:06.489Z,44.21
2022-09-07T11:56:45.570Z,44.23
2022-09-07T11:59:44.882Z,44.46
2022-09-07T12:02:57.780Z,44.30
2022-09-07T12:06:08.976Z,44.87
2022-09-07T12:09:04.956Z,45.89
2022-09-07T12:12:01.266Z,46.90
2022-09-07T12:15:32.344Z,48.19
2022-09-07T12:18:18.423Z,46.65
2022-09-07T12:20:50.761Z,46.93
2022-09-07T12:23:29.449Z,47.10
2022-09-07T12:26:38.280Z,46.61
2022-09-07T12:29:24.329Z,47.05
2022-09-07T12:32:52.354Z,46.12
2022-09-07T12:34:55.858Z,46.79
2022-09-07T12:37:27.850Z,45.57
2022-09-07T12:40:30.708Z,46.61
2022-09-07T12:43:14.690Z,45.83
2022-09-07T12:45:52.038Z,46.36
2022-09-07T12:48:39.571Z,44.22
2022-09-07T12:55:26.175Z,46.12
2022-09-07T12:58:41.710Z,47.17
2022-09-07T13:01:19.975Z,47.72
2022-09-07T13:04:12.864Z,47.25
2022-09-07T13:07:18.130Z,48.09
2022-09-07T13:09:58.951Z,47.25
2022-09-07T13:12:57.410Z,47.61
2022-09-07T13:15:41.831Z,47.38
2022-09-07T13:18:28.861Z,48.64
2022-09-07T13:21:09.930Z,48.98
2022-09-07T13:23:45.711Z,48.66
2022-09-07T13:26:55.118Z,47.55
2022-09-07T13:29:46.663Z,47.62
2022-09-07T13:35:29.474Z,49.40
2022-09-07T13:38:03.881Z,49.94
2022-09-07T13:40:39.853Z,50.07
2022-09-07T13:43:20.806Z,50.22
2022-09-07T13:45:55.690Z,50.33
2022-09-07T13:48:52.183Z,49.78
2022-09-07T13:51:40.651Z,50.31
2022-09-07T13:54:26.936Z,51.27
2022-09-07T13:57:28.663Z,51.66
2022-09-07T14:00:00.840Z,53.18
2022-09-07T14:02:34.746Z,53.54
2022-09-07T14:05:09.523Z,52.99
2022-09-07T14:07:48.498Z,54.05
2022-09-07T14:10:25.203Z,54.68
2022-09-07T14:13:12.907Z,54.33
2022-09-07T14:15:47.771Z,53.87
2022-09-07T14:18:33.035Z,53.24
2022-09-07T14:21:08.169Z,53.28
2022-09-07T14:23:41.683Z,52.87
2022-09-07T14:26:22.931Z,52.37
2022-09-07T14:28:56.817Z,52.72
2022-09-07T14:31:28.895Z,51.79
2022-09-07T14:34:01.457Z,51.67
2022-09-07T14:36:46.154Z,52.28
2022-09-07T14:39:21.371Z,52.13
2022-09-07T14:41:53.584Z,52.40
2022-09-07T14:44:32.303Z,52.69
2022-09-07T14:47:18.933Z,52.31
2022-09-07T14:49:52.782Z,52.12
2022-09-07T14:53:32.871Z,51.89
2022-09-07T14:55:42.830Z,52.07
2022-09-07T14:58:14.665Z,51.23
2022-09-07T15:04:19.225Z,50.81
2022-09-07T15:07:06.588Z,51.18
2022-09-07T15:09:39.009Z,50.32
2022-09-07T15:12:13.631Z,50.47
2022-09-07T15:14:47.562Z,51.41
2022-09-07T15:17:43.706Z,51.49
2022-09-07T15:20:48.563Z,51.73
2022-09-07T15:23:20.495Z,51.90
2022-09-07T15:25:54.157Z,51.38
2022-09-07T15:31:56.731Z,51.86
2022-09-07T15:34:21.877Z,51.65
2022-09-07T15:36:57.228Z,52.42
2022-09-07T15:39:30.361Z,53.14
2022-09-07T15:44:55.717Z,53.14
2022-09-07T15:47:47.279Z,53.64
2022-09-07T15:50:23.070Z,53.80
2022-09-07T15:52:55.498Z,54.61
2022-09-07T15:55:27.434Z,55.43
2022-09-07T15:58:10.997Z,55.59
2022-09-07T16:00:43.559Z,55.57
2022-09-07T16:03:15.900Z,54.73
2022-09-07T16:05:47.884Z,55.25
2022-09-07T16:08:27.553Z,55.45
2022-09-07T16:11:12.579Z,55.69
2022-09-07T16:13:48.155Z,55.77
2022-09-07T16:16:20.712Z,54.00
2022-09-07T16:18:53.711Z,54.96
2022-09-07T16:21:26.283Z,54.69
2022-09-07T16:23:58.635Z,54.29
2022-09-07T16:26:30.616Z,54.06
2022-09-07T16:29:03.602Z,55.58
2022-09-07T16:31:35.942Z,55.83
2022-09-07T16:34:08.183Z,56.41
2022-09-07T16:36:40.087Z,56.30
2022-09-07T16:39:12.027Z,56.76
2022-09-07T16:41:44.449Z,56.28
2022-09-07T16:44:16.932Z,56.65
2022-09-07T16:46:48.927Z,55.73
2022-09-07T16:49:21.119Z,55.81
2022-09-07T16:51:53.379Z,56.15
2022-09-07T16:54:25.297Z,57.08
2022-09-07T16:56:58.132Z,56.96
2022-09-07T16:59:30.093Z,56.87
2022-09-07T17:02:02.243Z,56.72
2022-09-07T17:04:34.306Z,56.36
2022-09-07T17:07:06.350Z,57.05
2022-09-07T17:09:41.139Z,57.46
2022-09-07T17:12:13.093Z,57.01
2022-09-07T17:14:45.034Z,57.16
2022-09-07T17:17:16.950Z,56.68
2022-09-07T17:19:49.088Z,57.76
2022-09-07T17:22:21.150Z,58.07
2022-09-07T17:24:53.115Z,58.54
2022-09-07T17:27:27.266Z,58.40
2022-09-07T17:29:59.496Z,58.61
2022-09-07T17:32:32.704Z,59.21
2022-09-07T17:35:05.279Z,59.95
2022-09-07T17:37:37.250Z,60.38
2022-09-07T17:40:09.876Z,61.11
2022-09-07T17:45:34.189Z,61.64
2022-09-07T17:48:06.181Z,61.29
2022-09-07T17:50:38.276Z,62.02
2022-09-07T17:53:10.335Z,61.96
2022-09-07T17:55:44.990Z,62.75
2022-09-07T17:58:16.966Z,63.61
2022-09-07T18:00:49.143Z,63.41
2022-09-07T18:03:21.962Z,63.84
2022-09-07T18:05:55.346Z,64.61
2022-09-07T18:08:28.093Z,64.45
2022-09-07T18:14:00.028Z,65.29
2022-09-07T18:16:34.201Z,65.67
2022-09-07T18:19:12.461Z,66.03
2022-09-07T18:21:44.479Z,65.79
2022-09-07T18:24:23.290Z,66.66
2022-09-07T18:26:55.690Z,66.40
2022-09-07T18:29:33.643Z,66.46
2022-09-07T18:32:12.664Z,66.82
2022-09-07T18:34:50.415Z,67.40
2022-09-07T18:37:23.410Z,67.53
2022-09-07T18:39:55.558Z,67.73
2022-09-07T18:42:29.169Z,68.22
2022-09-07T18:47:54.702Z,68.60
2022-09-07T18:50:26.901Z,69.09
2022-09-07T18:53:07.290Z,68.70
2022-09-07T18:55:47.905Z,69.13
2022-09-07T18:58:21.083Z,69.07
2022-09-07T19:00:58.264Z,69.60
2022-09-07T19:03:30.728Z,70.08
2022-09-07T19:06:09.726Z,69.83
2022-09-07T19:08:44.022Z,70.79
2022-09-07T19:11:19.544Z,70.60
2022-09-07T19:14:06.171Z,71.21
2022-09-07T19:16:38.837Z,71.88
2022-09-07T19:19:13.585Z,71.75
2022-09-07T19:21:45.987Z,72.28
2022-09-07T19:24:19.544Z,72.44
2022-09-07T19:26:51.487Z,72.54
2022-09-07T19:29:23.760Z,72.44
2022-09-07T19:32:04.729Z,72.70
2022-09-07T19:34:40.278Z,72.80
2022-09-07T19:37:13.463Z,72.90
2022-09-07T19:39:45.886Z,73.27
2022-09-07T19:42:17.860Z,73.47
2022-09-07T19:44:50.326Z,73.61
2022-09-07T19:47:23.558Z,73.54
2022-09-07T19:49:55.547Z,73.71
2022-09-07T19:52:27.850Z,73.75
2022-09-07T19:55:02.882Z,73.54
2022-09-07T19:57:35.651Z,73.55
2022-09-07T20:00:09.457Z,73.42
2022-09-07T20:02:41.499Z,73.31
2022-09-07T20:05:14.717Z,73.32
2022-09-07T20:07:46.866Z,73.28
2022-09-07T20:10:18.869Z,73.05
2022-09-07T20:12:50.919Z,73.44
2022-09-07T20:15:22.879Z,73.51
2022-09-07T20:17:55.058Z,73.93
2022-09-07T20:20:26.992Z,74.03
2022-09-07T20:22:58.917Z,73.92
2022-09-07T20:25:30.921Z,73.72
2022-09-07T20:28:03.174Z,73.72
2022-09-07T20:30:35.166Z,74.15
2022-09-07T20:33:07.060Z,73.97
2022-09-07T20:35:39.050Z,74.43
2022-09-07T20:38:11.570Z,74.27
2022-09-07T20:41:00.873Z,74.30
2022-09-07T20:43:32.866Z,74.54
2022-09-07T20:46:05.037Z,74.72
2022-09-07T20:48:38.019Z,74.74
2022-09-07T20:51:20.817Z,74.91
2022-09-07T20:53:53.584Z,75.33
2022-09-07T20:56:28.711Z,75.14
2022-09-07T20:59:02.991Z,75.27
2022-09-07T21:01:35.522Z,75.12
2022-09-07T21:04:07.612Z,75.43
2022-09-07T21:06:39.592Z,76.31
2022-09-07T21:09:11.526Z,76.24
2022-09-07T21:11:47.294Z,76.75
2022-09-07T21:14:21.791Z,76.92
2022-09-07T21:16:53.887Z,76.93
2022-09-07T21:19:29.161Z,77.48
2022-09-07T21:22:01.091Z,77.58
2022-09-07T21:24:33.293Z,77.70
2022-09-07T21:27:05.286Z,78.01
2022-09-07T21:29:37.275Z,78.08
2022-09-07T21:32:09.759Z,77.75
2022-09-07T21:34:41.819Z,78.33
2022-09-07T21:37:13.890Z,77.89
2022-09-07T21:39:45.862Z,78.06
2022-09-07T21:42:18.127Z,77.51
2022-09-07T21:44:50.033Z,77.60
2022-09-07T21:47:22.088Z,77.63
2022-09-07T21:49:54.017Z,78.03
2022-09-07T21:52:25.981Z,78.33
2022-09-07T21:54:58.003Z,78.76
2022-09-07T21:57:29.969Z,78.79
2022-09-07T22:00:02.341Z,79.61
2022-09-07T22:02:34.290Z,79.49
2022-09-07T22:05:06.358Z,79.81
2022-09-07T22:07:38.277Z,79.83
2022-09-07T22:10:10.544Z,80.25
2022-09-07T22:12:42.544Z,80.60
2022-09-07T22:15:14.533Z,80.91
2022-09-07T22:17:46.570Z,80.57
2022-09-07T22:20:18.566Z,80.72
2022-09-07T22:22:50.519Z,81.38
2022-09-07T22:25:22.419Z,81.97
2022-09-07T22:27:54.367Z,81.46
2022-09-07T22:30:26.656Z,81.42
2022-09-07T22:32:58.617Z,82.23
2022-09-07T22:35:30.553Z,82.23
2022-09-07T22:38:02.505Z,82.26
2022-09-07T22:40:34.454Z,82.56
2022-09-07T22:43:07.143Z,82.56
2022-09-07T22:45:39.130Z,82.82
2022-09-07T22:48:11.095Z,82.66
2022-09-07T22:50:42.995Z,82.78
2022-09-07T22:53:14.927Z,83.16
2022-09-07T22:55:46.840Z,82.79
2022-09-07T22:58:19.316Z,83.19
2022-09-07T23:00:52.893Z,83.03
2022-09-07T23:03:25.282Z,83.39
2022-09-07T23:05:57.580Z,83.16
2022-09-07T23:08:30.186Z,83.80
2022-09-07T23:11:05.293Z,84.35
2022-09-07T23:13:37.317Z,83.95
2022-09-07T23:16:10.092Z,84.13
2022-09-07T23:18:42.093Z,83.94
2022-09-07T23:21:14.325Z,83.14
2022-09-07T23:23:59.763Z,83.94
2022-09-07T23:26:32.900Z,83.50
2022-09-07T23:29:06.128Z,84.04
2022-09-07T23:31:38.370Z,84.26
2022-09-07T23:34:10.370Z,84.69
2022-09-07T23:36:42.295Z,84.77
2022-09-07T23:39:14.363Z,85.11
2022-09-07T23:41:46.286Z,84.77
2022-09-07T23:44:18.227Z,84.63
2022-09-07T23:46:50.258Z,84.90
2022-09-07T23:49:22.380Z,85.01
2022-09-07T23:51:54.479Z,85.27
2022-09-07T23:54:26.906Z,85.48
2022-09-07T23:56:58.799Z,85.77
2022-09-07T23:59:32.351Z,85.74
